createdAt,value
2024-01-30T00:02:20.325Z,7.16
2024-01-30T00:04:48.026Z,7.18
2024-01-30T00:07:15.790Z,7.16
2024-01-30T00:09:43.650Z,7.19
2024-01-30T00:12:12.789Z,7.29
2024-01-30T00:14:40.538Z,7.27
2024-01-30T00:17:08.191Z,7.23
2024-01-30T00:19:36.093Z,7.14
2024-01-30T00:22:03.955Z,7.19
2024-01-30T00:24:31.652Z,7.15
2024-01-30T00:26:59.340Z,7.10
2024-01-30T00:29:31.490Z,6.97
2024-01-30T00:31:59.253Z,7.08
2024-01-30T00:34:26.993Z,7.09
2024-01-30T00:36:55.017Z,7.06
2024-01-30T00:39:22.903Z,7.04
2024-01-30T00:41:50.636Z,6.99
2024-01-30T00:44:18.353Z,6.99
2024-01-30T00:46:47.768Z,7.13
2024-01-30T00:49:15.493Z,7.07
2024-01-30T00:51:43.339Z,7.05
2024-01-30T00:54:11.185Z,6.98
2024-01-30T00:56:38.834Z,7.00
2024-01-30T00:59:06.483Z,7.04
2024-01-30T01:01:34.352Z,7.03
2024-01-30T01:04:03.632Z,7.05
2024-01-30T01:06:31.432Z,7.05
2024-01-30T01:09:00.464Z,7.05
2024-01-30T01:11:29.233Z,7.05
2024-01-30T01:13:56.953Z,7.03
2024-01-30T01:16:24.600Z,7.06
2024-01-30T01:18:52.443Z,7.05
2024-01-30T01:21:21.565Z,7.05
2024-01-30T01:23:49.217Z,7.11
2024-01-30T01:26:16.917Z,7.14
2024-01-30T01:28:44.561Z,7.13
2024-01-30T01:31:12.247Z,7.12
2024-01-30T01:33:40.431Z,7.13
2024-01-30T01:36:08.662Z,7.03
2024-01-30T01:38:37.724Z,7.00
2024-01-30T01:41:05.709Z,6.98
2024-01-30T01:43:33.417Z,6.96
2024-01-30T01:46:02.569Z,7.04
2024-01-30T01:48:30.961Z,7.02
2024-01-30T01:50:59.226Z,7.05
2024-01-30T01:53:28.981Z,7.03
2024-01-30T01:55:59.058Z,7.04
2024-01-30T01:58:31.076Z,7.11
2024-01-30T02:01:00.200Z,7.11
2024-01-30T02:03:28.112Z,7.11
2024-01-30T02:05:57.199Z,7.11
2024-01-30T02:08:25.532Z,7.15
2024-01-30T02:10:53.297Z,7.14
2024-01-30T02:13:23.529Z,7.16
2024-01-30T02:15:52.467Z,7.05
2024-01-30T02:18:22.282Z,7.12
2024-01-30T02:20:49.973Z,7.08
2024-01-30T02:23:19.012Z,7.07
2024-01-30T02:25:46.658Z,7.05
2024-01-30T02:28:14.618Z,7.03
2024-01-30T02:30:42.765Z,7.00
2024-01-30T02:33:10.524Z,6.86
2024-01-30T02:35:38.290Z,6.97
2024-01-30T02:38:06.548Z,6.94
2024-01-30T02:40:35.559Z,6.97
2024-01-30T02:43:04.315Z,6.95
2024-01-30T02:45:32.071Z,6.99
2024-01-30T02:47:59.776Z,7.01
2024-01-30T02:50:27.530Z,7.15
2024-01-30T02:52:55.290Z,7.08
2024-01-30T02:55:23.078Z,7.04
2024-01-30T02:57:52.303Z,7.00
2024-01-30T03:00:21.793Z,7.00
2024-01-30T03:02:49.475Z,7.04
2024-01-30T03:05:17.151Z,7.07
2024-01-30T03:07:44.964Z,7.07
2024-01-30T03:10:12.682Z,7.04
2024-01-30T03:12:40.378Z,7.04
2024-01-30T03:15:11.942Z,7.01
2024-01-30T03:17:39.824Z,7.03
2024-01-30T03:20:08.626Z,7.02
2024-01-30T03:22:36.743Z,7.06
2024-01-30T03:25:04.950Z,7.06
2024-01-30T03:27:32.626Z,7.07
2024-01-30T03:30:00.433Z,7.04
2024-01-30T03:32:29.552Z,7.09
2024-01-30T03:34:57.392Z,7.02
2024-01-30T03:37:25.293Z,7.02
2024-01-30T03:39:53.068Z,7.01
2024-01-30T03:42:20.974Z,7.00
2024-01-30T03:44:48.680Z,6.97
2024-01-30T03:47:16.426Z,6.97
2024-01-30T03:49:45.545Z,6.96
2024-01-30T03:52:13.315Z,6.97
2024-01-30T03:54:41.170Z,6.97
2024-01-30T03:57:08.914Z,6.94
2024-01-30T03:59:36.619Z,6.95
2024-01-30T04:02:05.556Z,6.90
2024-01-30T04:04:33.607Z,6.80
2024-01-30T04:07:02.706Z,6.84
2024-01-30T04:09:30.368Z,6.86
2024-01-30T04:11:58.134Z,6.84
2024-01-30T04:14:25.761Z,6.79
2024-01-30T04:16:53.503Z,6.77
2024-01-30T04:19:21.299Z,6.64
2024-01-30T04:21:49.116Z,6.70
2024-01-30T04:24:19.714Z,6.67
2024-01-30T04:26:46.448Z,6.69
2024-01-30T04:29:14.201Z,6.66
2024-01-30T04:31:42.081Z,6.69
2024-01-30T04:34:09.800Z,6.70
2024-01-30T04:36:37.688Z,6.68
2024-01-30T04:39:05.452Z,6.65
2024-01-30T04:41:34.984Z,6.77
2024-01-30T04:44:02.850Z,6.76
2024-01-30T04:46:30.519Z,6.76
2024-01-30T04:48:58.484Z,6.75
2024-01-30T04:51:26.222Z,6.74
2024-01-30T04:53:53.890Z,6.73
2024-01-30T04:56:21.627Z,6.75
2024-01-30T04:58:50.698Z,6.75
2024-01-30T05:01:18.753Z,6.72
2024-01-30T05:03:46.834Z,6.75
2024-01-30T05:06:14.643Z,6.75
2024-01-30T05:08:42.397Z,6.79
2024-01-30T05:11:10.603Z,6.83
2024-01-30T05:13:38.323Z,6.80
2024-01-30T05:16:07.812Z,6.85
2024-01-30T05:18:35.700Z,6.82
2024-01-30T05:21:04.669Z,6.79
2024-01-30T05:23:32.513Z,6.77
2024-01-30T05:26:01.975Z,6.74
2024-01-30T05:28:29.893Z,6.70
2024-01-30T05:30:57.941Z,6.67
2024-01-30T05:33:27.287Z,6.63
2024-01-30T05:35:55.491Z,6.56
2024-01-30T05:38:23.213Z,6.59
2024-01-30T05:40:50.942Z,6.54
2024-01-30T05:43:18.629Z,6.50
2024-01-30T05:45:46.405Z,6.52
2024-01-30T05:48:14.072Z,6.49
2024-01-30T05:50:43.319Z,6.46
2024-01-30T05:53:11.027Z,6.43
2024-01-30T05:55:38.855Z,6.45
2024-01-30T05:58:06.573Z,6.45
2024-01-30T06:00:34.325Z,6.34
2024-01-30T06:03:02.034Z,6.35
2024-01-30T06:05:29.829Z,6.33
2024-01-30T06:07:59.000Z,6.31
2024-01-30T06:10:26.869Z,6.31
2024-01-30T06:12:54.650Z,6.27
2024-01-30T06:15:22.313Z,6.27
2024-01-30T06:17:50.031Z,6.26
2024-01-30T06:20:18.239Z,6.28
2024-01-30T06:22:45.931Z,6.30
2024-01-30T06:25:15.194Z,6.28
2024-01-30T06:27:42.941Z,6.29
2024-01-30T06:30:11.702Z,6.27
2024-01-30T06:32:39.689Z,6.30
2024-01-30T06:35:08.228Z,6.30
2024-01-30T06:37:35.975Z,6.30
2024-01-30T06:40:03.784Z,6.26
2024-01-30T06:42:32.929Z,6.21
2024-01-30T06:45:00.621Z,6.25
2024-01-30T06:47:29.749Z,6.25
2024-01-30T06:49:57.636Z,6.23
2024-01-30T06:52:25.465Z,6.26
2024-01-30T06:54:53.241Z,6.26
2024-01-30T06:57:21.107Z,6.23
2024-01-30T06:59:50.161Z,6.23
2024-01-30T07:02:18.369Z,6.25
2024-01-30T07:04:47.533Z,6.24
2024-01-30T07:07:16.132Z,6.26
2024-01-30T07:09:44.097Z,6.29
2024-01-30T07:12:11.809Z,6.35
2024-01-30T07:14:39.489Z,6.39
2024-01-30T07:17:09.734Z,6.46
2024-01-30T07:19:37.575Z,6.51
2024-01-30T07:22:05.642Z,6.65
2024-01-30T07:24:33.317Z,6.68
2024-01-30T07:27:01.012Z,6.68
2024-01-30T07:29:28.742Z,6.72
2024-01-30T07:31:56.489Z,6.73
2024-01-30T07:34:25.627Z,6.75
2024-01-30T07:36:56.356Z,6.77
2024-01-30T07:39:24.199Z,6.79
2024-01-30T07:41:51.909Z,6.85
2024-01-30T07:44:19.709Z,6.84
2024-01-30T07:46:47.377Z,6.88
2024-01-30T07:49:15.503Z,6.92
2024-01-30T07:51:46.170Z,6.95
2024-01-30T07:54:14.166Z,6.99
2024-01-30T07:56:42.811Z,7.02
2024-01-30T07:59:11.912Z,7.12
2024-01-30T08:01:39.734Z,7.14
2024-01-30T08:04:07.529Z,7.19
2024-01-30T08:06:35.500Z,7.24
2024-01-30T08:09:05.903Z,7.31
2024-01-30T08:11:33.617Z,7.34
2024-01-30T08:14:01.274Z,7.39
2024-01-30T08:16:29.068Z,7.43
2024-01-30T08:18:58.965Z,7.42
2024-01-30T08:21:26.794Z,7.45
2024-01-30T08:23:54.812Z,7.50
2024-01-30T08:26:23.858Z,7.54
2024-01-30T08:28:52.923Z,7.59
2024-01-30T08:31:20.726Z,7.61
2024-01-30T08:33:50.312Z,7.69
2024-01-30T08:36:19.285Z,7.73
2024-01-30T08:38:46.949Z,7.80
2024-01-30T08:41:14.699Z,7.62
2024-01-30T08:43:45.743Z,7.92
2024-01-30T08:46:14.151Z,7.95
2024-01-30T08:48:41.943Z,7.98
2024-01-30T08:51:10.160Z,7.81
2024-01-30T08:53:37.897Z,8.01
2024-01-30T08:56:06.164Z,8.17
2024-01-30T08:58:34.009Z,8.20
2024-01-30T09:01:05.069Z,8.33
2024-01-30T09:03:32.924Z,8.46
2024-01-30T09:06:00.597Z,8.54
2024-01-30T09:08:28.492Z,8.75
2024-01-30T09:10:56.406Z,8.93
2024-01-30T09:13:24.194Z,9.02
2024-01-30T09:15:51.957Z,9.25
2024-01-30T09:18:21.163Z,9.33
2024-01-30T09:20:48.894Z,9.41
2024-01-30T09:23:16.831Z,9.70
2024-01-30T09:25:44.550Z,9.83
2024-01-30T09:28:12.278Z,9.82
2024-01-30T09:30:40.037Z,9.93
2024-01-30T09:33:08.854Z,9.85
2024-01-30T09:35:38.290Z,9.83
2024-01-30T09:38:06.212Z,9.87
2024-01-30T09:40:34.199Z,9.90
2024-01-30T09:43:02.191Z,9.96
2024-01-30T09:45:29.934Z,10.04
2024-01-30T09:47:58.134Z,10.05
2024-01-30T09:50:25.876Z,10.09
2024-01-30T09:52:57.353Z,10.21
2024-01-30T09:55:25.978Z,10.27
2024-01-30T09:57:53.707Z,10.41
2024-01-30T10:00:23.902Z,10.47
2024-01-30T10:02:51.861Z,10.54
2024-01-30T10:05:21.590Z,10.57
2024-01-30T10:07:57.146Z,10.61
2024-01-30T10:10:25.685Z,10.70
2024-01-30T10:12:53.691Z,10.74
2024-01-30T10:15:21.651Z,10.71
2024-01-30T10:17:49.448Z,10.79
2024-01-30T10:20:18.665Z,10.98
2024-01-30T10:22:47.252Z,11.15
2024-01-30T10:25:17.540Z,11.28
2024-01-30T10:27:45.297Z,11.32
2024-01-30T10:30:13.309Z,11.39
2024-01-30T10:32:41.024Z,11.44
2024-01-30T10:35:10.013Z,11.49
2024-01-30T10:37:37.932Z,11.48
2024-01-30T10:40:07.327Z,11.52
2024-01-30T10:42:39.005Z,11.32
2024-01-30T10:45:09.402Z,11.59
2024-01-30T10:47:38.946Z,11.63
2024-01-30T10:50:08.873Z,11.82
2024-01-30T10:52:36.889Z,11.96
2024-01-30T10:55:08.446Z,12.13
2024-01-30T10:57:38.007Z,12.14
2024-01-30T11:00:11.469Z,12.12
2024-01-30T11:02:42.123Z,12.16
2024-01-30T11:05:10.717Z,12.23
2024-01-30T11:07:40.792Z,12.18
2024-01-30T11:10:10.561Z,12.25
2024-01-30T11:12:44.483Z,12.19
2024-01-30T11:15:16.664Z,12.20
2024-01-30T11:17:46.213Z,12.23
2024-01-30T11:20:16.748Z,12.26
2024-01-30T11:22:46.927Z,12.23
2024-01-30T11:25:15.876Z,12.19
2024-01-30T11:27:45.555Z,12.13
2024-01-30T11:30:13.747Z,12.18
2024-01-30T11:32:41.479Z,12.19
2024-01-30T11:35:13.275Z,12.28
2024-01-30T11:37:41.759Z,12.29
2024-01-30T11:40:11.760Z,12.27
2024-01-30T11:42:40.722Z,12.25
2024-01-30T11:45:10.250Z,12.25
2024-01-30T11:47:42.282Z,12.24
2024-01-30T11:50:12.326Z,12.26
2024-01-30T11:52:40.392Z,12.16
2024-01-30T11:55:09.314Z,12.14
2024-01-30T11:57:38.107Z,12.19
2024-01-30T12:00:11.021Z,12.07
2024-01-30T12:02:40.264Z,12.13
2024-01-30T12:05:08.678Z,12.13
2024-01-30T12:07:36.483Z,12.13
2024-01-30T12:10:06.665Z,12.11
2024-01-30T12:12:34.626Z,12.06
2024-01-30T12:15:02.463Z,11.97
2024-01-30T12:17:31.750Z,11.96
2024-01-30T12:20:08.124Z,11.94
2024-01-30T12:22:39.297Z,11.73
2024-01-30T12:25:07.683Z,11.87
2024-01-30T12:27:35.521Z,11.86
2024-01-30T12:30:03.450Z,11.87
2024-01-30T12:32:31.219Z,11.84
2024-01-30T12:35:01.940Z,11.82
2024-01-30T12:37:32.400Z,11.87
2024-01-30T12:40:00.301Z,11.89
2024-01-30T12:42:29.157Z,11.88
2024-01-30T12:44:59.075Z,11.87
2024-01-30T12:47:27.194Z,11.87
2024-01-30T12:49:58.155Z,11.89
2024-01-30T12:52:26.317Z,11.95
2024-01-30T12:54:55.486Z,11.92
2024-01-30T12:57:23.429Z,11.82
2024-01-30T12:59:51.150Z,11.78
2024-01-30T13:02:19.048Z,11.81
2024-01-30T13:04:48.939Z,11.79
2024-01-30T13:07:18.175Z,11.75
2024-01-30T13:09:45.891Z,11.68
2024-01-30T13:12:15.117Z,11.69
2024-01-30T13:14:42.772Z,11.63
2024-01-30T13:17:10.722Z,11.66
2024-01-30T13:19:38.531Z,11.65
2024-01-30T13:22:06.704Z,11.70
2024-01-30T13:24:34.394Z,11.69
2024-01-30T13:27:02.094Z,11.59
2024-01-30T13:29:31.209Z,11.56
2024-01-30T13:31:58.925Z,11.41
2024-01-30T13:34:27.484Z,11.53
2024-01-30T13:36:55.333Z,11.54
2024-01-30T13:39:23.850Z,11.47
2024-01-30T13:41:53.310Z,11.46
2024-01-30T13:44:21.999Z,11.44
2024-01-30T13:46:51.425Z,11.29
2024-01-30T13:49:19.157Z,11.46
2024-01-30T13:51:47.014Z,11.43
2024-01-30T13:54:17.059Z,11.33
2024-01-30T13:56:45.342Z,11.36
2024-01-30T13:59:13.151Z,11.37
2024-01-30T14:01:40.945Z,11.37
2024-01-30T14:04:12.071Z,11.39
2024-01-30T14:06:49.956Z,11.32
2024-01-30T14:09:22.286Z,11.32
2024-01-30T14:11:50.040Z,11.28
2024-01-30T14:14:17.677Z,11.35
2024-01-30T14:16:45.546Z,11.35
2024-01-30T14:19:14.649Z,11.35
2024-01-30T14:21:43.217Z,11.32
2024-01-30T14:24:12.289Z,11.31
2024-01-30T14:26:40.063Z,11.08
2024-01-30T14:29:08.233Z,11.17
2024-01-30T14:31:36.000Z,11.39
2024-01-30T14:34:03.992Z,11.42
2024-01-30T14:36:33.291Z,11.39
2024-01-30T14:39:01.034Z,11.45
2024-01-30T14:41:29.575Z,11.47
2024-01-30T14:43:57.270Z,11.49
2024-01-30T14:46:25.144Z,11.45
2024-01-30T14:48:53.092Z,11.43
2024-01-30T14:51:21.197Z,11.35
2024-01-30T14:53:50.215Z,11.41
2024-01-30T14:56:18.800Z,11.45
2024-01-30T14:58:46.561Z,11.43
2024-01-30T15:01:14.899Z,11.37
2024-01-30T15:03:44.445Z,11.36
2024-01-30T15:06:12.142Z,11.41
2024-01-30T15:08:40.142Z,11.39
2024-01-30T15:11:09.210Z,11.32
2024-01-30T15:13:36.908Z,11.29
2024-01-30T15:16:06.865Z,11.32
2024-01-30T15:18:34.709Z,11.31
2024-01-30T15:21:03.304Z,11.32
2024-01-30T15:23:31.083Z,11.37
2024-01-30T15:25:58.973Z,11.26
2024-01-30T15:28:38.870Z,11.30
2024-01-30T15:31:08.076Z,11.24
2024-01-30T15:33:36.062Z,11.23
2024-01-30T15:36:04.843Z,11.23
2024-01-30T15:38:32.616Z,10.93
2024-01-30T15:41:01.887Z,11.16
2024-01-30T15:43:29.818Z,11.10
2024-01-30T15:45:59.196Z,11.06
2024-01-30T15:48:27.084Z,10.91
2024-01-30T15:50:55.142Z,10.89
2024-01-30T15:53:23.247Z,10.84
2024-01-30T15:55:50.974Z,10.84
2024-01-30T15:58:18.666Z,10.75
2024-01-30T16:00:46.540Z,10.75
2024-01-30T16:03:15.756Z,10.43
2024-01-30T16:05:43.791Z,10.70
2024-01-30T16:08:11.516Z,10.59
2024-01-30T16:10:39.380Z,10.56
2024-01-30T16:13:07.118Z,10.52
2024-01-30T16:15:34.897Z,10.48
2024-01-30T16:18:03.285Z,10.45
2024-01-30T16:20:32.400Z,10.44
2024-01-30T16:23:00.071Z,10.27
2024-01-30T16:25:27.852Z,10.33
2024-01-30T16:27:55.649Z,10.28
2024-01-30T16:30:23.329Z,10.24
2024-01-30T16:32:52.316Z,10.22
2024-01-30T16:35:20.142Z,10.17
2024-01-30T16:37:49.170Z,10.12
2024-01-30T16:40:17.243Z,10.09
2024-01-30T16:42:44.912Z,10.08
2024-01-30T16:45:12.585Z,10.09
2024-01-30T16:47:40.323Z,10.08
2024-01-30T16:50:08.534Z,10.02
2024-01-30T16:52:36.320Z,9.97
2024-01-30T16:55:06.210Z,9.95
2024-01-30T16:57:36.751Z,9.99
2024-01-30T17:00:06.925Z,9.92
2024-01-30T17:02:34.629Z,9.84
2024-01-30T17:05:11.363Z,9.78
2024-01-30T17:07:44.116Z,9.69
2024-01-30T17:10:14.420Z,9.64
2024-01-30T17:12:42.148Z,9.54
2024-01-30T17:15:10.731Z,9.58
2024-01-30T17:17:38.437Z,9.55
2024-01-30T17:20:08.056Z,9.55
2024-01-30T17:22:36.200Z,9.53
2024-01-30T17:25:04.540Z,9.51
2024-01-30T17:27:33.947Z,9.52
2024-01-30T17:30:01.854Z,9.54
2024-01-30T17:32:29.588Z,9.53
2024-01-30T17:34:57.384Z,9.53
2024-01-30T17:37:25.213Z,9.51
2024-01-30T17:39:53.097Z,9.53
2024-01-30T17:42:22.849Z,9.46
2024-01-30T17:44:52.283Z,9.50
2024-01-30T17:47:20.055Z,9.43
2024-01-30T17:49:47.762Z,9.42
2024-01-30T17:52:16.431Z,9.42
2024-01-30T17:54:44.109Z,9.38
2024-01-30T17:57:12.025Z,9.32
2024-01-30T17:59:40.100Z,9.21
2024-01-30T18:02:09.530Z,9.07
2024-01-30T18:04:40.508Z,9.06
2024-01-30T18:07:08.694Z,8.65
2024-01-30T18:09:36.630Z,9.01
2024-01-30T18:12:04.685Z,8.95
2024-01-30T18:14:32.400Z,8.96
2024-01-30T18:17:00.258Z,8.88
2024-01-30T18:19:29.519Z,8.81
2024-01-30T18:21:57.294Z,8.82
2024-01-30T18:26:53.839Z,8.76
2024-01-30T18:29:21.487Z,8.73
2024-01-30T18:31:49.236Z,8.78
2024-01-30T18:34:17.112Z,8.57
2024-01-30T18:36:46.274Z,8.56
2024-01-30T18:39:14.612Z,8.56
2024-01-30T18:41:42.356Z,8.56
2024-01-30T18:44:10.012Z,8.55
2024-01-30T18:46:38.160Z,8.51
2024-01-30T18:49:06.071Z,8.51
2024-01-30T18:51:34.001Z,8.49
2024-01-30T18:54:03.036Z,8.50
2024-01-30T18:56:30.714Z,8.44
2024-01-30T18:58:58.487Z,8.44
2024-01-30T19:01:26.274Z,8.44
2024-01-30T19:03:54.791Z,8.41
2024-01-30T19:06:22.627Z,8.44
2024-01-30T19:08:50.359Z,8.43
2024-01-30T19:11:22.567Z,8.38
2024-01-30T19:13:50.535Z,8.37
2024-01-30T19:16:18.247Z,8.42
2024-01-30T19:18:46.603Z,8.38
2024-01-30T19:21:14.498Z,8.32
2024-01-30T19:23:42.193Z,8.32
2024-01-30T19:26:10.058Z,8.21
2024-01-30T19:28:39.565Z,8.32
2024-01-30T19:31:07.513Z,8.31
2024-01-30T19:33:35.395Z,8.34
2024-01-30T19:36:03.396Z,8.32
2024-01-30T19:38:31.073Z,8.33
2024-01-30T19:40:59.031Z,8.33
2024-01-30T19:43:27.390Z,8.23
2024-01-30T19:45:56.582Z,8.08
2024-01-30T19:48:24.271Z,8.23
2024-01-30T19:50:51.964Z,8.20
2024-01-30T19:53:21.920Z,8.18
2024-01-30T19:55:49.654Z,8.14
2024-01-30T19:58:17.426Z,8.06
2024-01-30T20:00:45.504Z,8.05
2024-01-30T20:03:14.607Z,8.01
2024-01-30T20:05:42.398Z,8.03
2024-01-30T20:08:10.128Z,7.97
2024-01-30T20:10:37.845Z,7.99
2024-01-30T20:13:05.907Z,8.01
2024-01-30T20:15:33.652Z,8.07
2024-01-30T20:18:01.429Z,7.98
2024-01-30T20:20:30.908Z,7.99
2024-01-30T20:22:58.623Z,7.98
2024-01-30T20:25:26.370Z,7.99
2024-01-30T20:27:54.884Z,7.98
2024-01-30T20:30:23.610Z,7.91
2024-01-30T20:32:52.566Z,7.89
2024-01-30T20:35:21.095Z,7.86
2024-01-30T20:37:51.042Z,7.81
2024-01-30T20:40:19.089Z,7.77
2024-01-30T20:42:48.369Z,7.80
2024-01-30T20:45:16.515Z,7.80
2024-01-30T20:47:44.563Z,7.79
2024-01-30T20:50:12.445Z,7.43
2024-01-30T20:52:40.312Z,7.65
2024-01-30T20:55:09.991Z,7.73
2024-01-30T20:57:37.770Z,7.71
2024-01-30T21:00:08.561Z,7.71
2024-01-30T21:02:38.358Z,7.70
2024-01-30T21:05:07.059Z,7.74
2024-01-30T21:07:34.944Z,7.68
2024-01-30T21:10:02.769Z,7.67
2024-01-30T21:12:31.846Z,7.60
2024-01-30T21:14:59.525Z,7.68
2024-01-30T21:17:27.885Z,7.69
2024-01-30T21:19:55.789Z,7.67
2024-01-30T21:22:23.582Z,7.66
2024-01-30T21:24:51.507Z,7.61
2024-01-30T21:27:19.233Z,7.66
2024-01-30T21:29:48.288Z,7.47
2024-01-30T21:32:16.467Z,7.66
2024-01-30T21:34:44.289Z,7.67
2024-01-30T21:37:11.985Z,7.56
2024-01-30T21:39:41.036Z,7.59
2024-01-30T21:42:08.776Z,7.61
2024-01-30T21:44:36.553Z,7.54
2024-01-30T21:47:06.077Z,7.53
2024-01-30T21:49:34.580Z,7.50
2024-01-30T21:52:06.117Z,7.49
2024-01-30T21:54:34.120Z,7.19
2024-01-30T21:57:01.879Z,7.44
2024-01-30T21:59:29.684Z,7.46
2024-01-30T22:01:57.377Z,7.40
2024-01-30T22:04:26.620Z,7.34
2024-01-30T22:06:54.447Z,7.43
2024-01-30T22:09:23.213Z,7.45
2024-01-30T22:11:50.994Z,7.39
2024-01-30T22:14:18.822Z,7.39
2024-01-30T22:16:46.497Z,7.39
2024-01-30T22:19:14.854Z,7.39
2024-01-30T22:21:43.885Z,7.43
2024-01-30T22:24:11.546Z,7.34
2024-01-30T22:26:43.878Z,7.35
2024-01-30T22:29:11.862Z,7.36
2024-01-30T22:31:40.741Z,7.36
2024-01-30T22:34:08.440Z,7.40
2024-01-30T22:36:36.247Z,7.37
2024-01-30T22:39:06.705Z,7.38
2024-01-30T22:41:34.695Z,7.39
2024-01-30T22:44:02.893Z,7.26
2024-01-30T22:46:30.810Z,7.25
2024-01-30T22:48:58.688Z,7.25
2024-01-30T22:51:26.989Z,7.24
2024-01-30T22:53:54.848Z,7.20
2024-01-30T22:56:23.878Z,7.24
2024-01-30T22:58:51.584Z,7.28
2024-01-30T23:01:19.306Z,7.31
2024-01-30T23:03:47.320Z,7.28
2024-01-30T23:06:15.021Z,7.19
2024-01-30T23:08:42.697Z,7.22
2024-01-30T23:11:12.765Z,7.15
2024-01-30T23:13:42.615Z,7.01
2024-01-30T23:16:10.523Z,6.98
2024-01-30T23:18:38.262Z,7.01
2024-01-30T23:21:06.231Z,6.79
2024-01-30T23:23:34.247Z,6.73
2024-01-30T23:26:01.929Z,6.77
2024-01-30T23:28:29.626Z,6.73
2024-01-30T23:30:58.979Z,6.64
2024-01-30T23:33:26.813Z,6.48
2024-01-30T23:35:54.536Z,6.72
2024-01-30T23:38:22.233Z,6.74
2024-01-30T23:40:50.523Z,6.74
2024-01-30T23:43:19.215Z,6.69
2024-01-30T23:45:46.921Z,6.73
2024-01-30T23:48:16.677Z,6.73
2024-01-30T23:50:44.441Z,6.75
2024-01-30T23:53:12.166Z,6.68
2024-01-30T23:55:39.996Z,6.64
2024-01-30T23:58:08.354Z,6.49
